sensor_id;sensor_type;location;lat;lon;timestamp;temperature;humidity
47434;SHT31;33184;48.774;8.918;2023-03-01T00:04:21;-1.83;74.38
47434;SHT31;33184;48.774;8.918;2023-03-01T00:09:41;-1.95;73.83
47434;SHT31;33184;48.774;8.918;2023-03-01T00:15:02;-2.06;73.71
47434;SHT31;33184;48.774;8.918;2023-03-01T00:20:26;-2.06;74.32
47434;SHT31;33184;48.774;8.918;2023-03-01T00:25:46;-1.98;74.83
47434;SHT31;33184;48.774;8.918;2023-03-01T00:31:15;-1.91;75.11
47434;SHT31;33184;48.774;8.918;2023-03-01T00:36:36;-1.96;75.14
47434;SHT31;33184;48.774;8.918;2023-03-01T00:41:57;-1.96;75.53
47434;SHT31;33184;48.774;8.918;2023-03-01T00:47:18;-1.91;75.67
47434;SHT31;33184;48.774;8.918;2023-03-01T00:52:38;-1.88;75.86
47434;SHT31;33184;48.774;8.918;2023-03-01T00:57:59;-1.86;75.79
47434;SHT31;33184;48.774;8.918;2023-03-01T01:03:19;-1.83;75.48
47434;SHT31;33184;48.774;8.918;2023-03-01T01:08:40;-1.91;75.55
47434;SHT31;33184;48.774;8.918;2023-03-01T01:14:00;-2.06;75.54
47434;SHT31;33184;48.774;8.918;2023-03-01T01:19:24;-2.05;76.41
47434;SHT31;33184;48.774;8.918;2023-03-01T01:24:45;-2.01;75.59
47434;SHT31;33184;48.774;8.918;2023-03-01T01:30:06;-1.98;75.69
47434;SHT31;33184;48.774;8.918;2023-03-01T01:35:27;-2.05;74.83
47434;SHT31;33184;48.774;8.918;2023-03-01T01:40:50;-2.01;75.15
47434;SHT31;33184;48.774;8.918;2023-03-01T01:51:42;-2.01;75.61
47434;SHT31;33184;48.774;8.918;2023-03-01T01:57:09;-1.93;75.71
47434;SHT31;33184;48.774;8.918;2023-03-01T02:02:31;-2.03;75.83
47434;SHT31;33184;48.774;8.918;2023-03-01T02:07:52;-2.20;76.45
47434;SHT31;33184;48.774;8.918;2023-03-01T02:13:14;-2.23;76.74
47434;SHT31;33184;48.774;8.918;2023-03-01T02:18:34;-2.20;76.91
47434;SHT31;33184;48.774;8.918;2023-03-01T02:23:56;-2.26;76.51
47434;SHT31;33184;48.774;8.918;2023-03-01T02:29:17;-2.32;76.94
47434;SHT31;33184;48.774;8.918;2023-03-01T02:34:38;-2.30;76.89
47434;SHT31;33184;48.774;8.918;2023-03-01T02:40:03;-2.32;77.50
47434;SHT31;33184;48.774;8.918;2023-03-01T02:45:26;-2.36;76.94
47434;SHT31;33184;48.774;8.918;2023-03-01T02:56:23;-2.37;76.40
47434;SHT31;33184;48.774;8.918;2023-03-01T03:01:44;-2.23;76.96
47434;SHT31;33184;48.774;8.918;2023-03-01T03:07:05;-2.26;76.76
47434;SHT31;33184;48.774;8.918;2023-03-01T03:12:27;-2.23;76.71
47434;SHT31;33184;48.774;8.918;2023-03-01T03:17:48;-2.19;76.89
47434;SHT31;33184;48.774;8.918;2023-03-01T03:23:10;-2.15;76.51
47434;SHT31;33184;48.774;8.918;2023-03-01T03:28:34;-1.99;77.21
47434;SHT31;33184;48.774;8.918;2023-03-01T03:33:55;-1.95;76.92
47434;SHT31;33184;48.774;8.918;2023-03-01T03:39:16;-1.99;76.71
47434;SHT31;33184;48.774;8.918;2023-03-01T03:44:37;-1.88;77.15
47434;SHT31;33184;48.774;8.918;2023-03-01T03:49:57;-1.85;76.90
47434;SHT31;33184;48.774;8.918;2023-03-01T03:55:18;-1.86;76.40
47434;SHT31;33184;48.774;8.918;2023-03-01T04:00:41;-1.85;76.68
47434;SHT31;33184;48.774;8.918;2023-03-01T04:06:03;-1.78;76.71
47434;SHT31;33184;48.774;8.918;2023-03-01T04:11:24;-1.72;76.80
47434;SHT31;33184;48.774;8.918;2023-03-01T04:16:47;-1.65;77.26
47434;SHT31;33184;48.774;8.918;2023-03-01T04:22:08;-1.61;77.38
47434;SHT31;33184;48.774;8.918;2023-03-01T04:27:35;-1.58;77.22
47434;SHT31;33184;48.774;8.918;2023-03-01T04:32:55;-1.61;77.05
47434;SHT31;33184;48.774;8.918;2023-03-01T04:38:20;-1.67;76.84
47434;SHT31;33184;48.774;8.918;2023-03-01T04:43:42;-1.71;76.93
47434;SHT31;33184;48.774;8.918;2023-03-01T04:49:03;-1.68;76.97
47434;SHT31;33184;48.774;8.918;2023-03-01T04:54:24;-1.70;77.32
47434;SHT31;33184;48.774;8.918;2023-03-01T04:59:44;-1.75;77.58
47434;SHT31;33184;48.774;8.918;2023-03-01T05:05:05;-1.74;77.74
47434;SHT31;33184;48.774;8.918;2023-03-01T05:10:28;-1.75;77.85
47434;SHT31;33184;48.774;8.918;2023-03-01T05:16:00;-1.68;77.98
47434;SHT31;33184;48.774;8.918;2023-03-01T05:21:20;-1.71;78.20
47434;SHT31;33184;48.774;8.918;2023-03-01T05:26:41;-1.74;78.56
47434;SHT31;33184;48.774;8.918;2023-03-01T05:32:02;-1.70;78.37
47434;SHT31;33184;48.774;8.918;2023-03-01T05:37:24;-1.57;78.01
47434;SHT31;33184;48.774;8.918;2023-03-01T05:42:53;-1.60;77.74
47434;SHT31;33184;48.774;8.918;2023-03-01T05:48:14;-1.55;78.18
47434;SHT31;33184;48.774;8.918;2023-03-01T05:53:34;-1.52;78.55
47434;SHT31;33184;48.774;8.918;2023-03-01T05:58:55;-1.44;79.15
47434;SHT31;33184;48.774;8.918;2023-03-01T06:04:16;-1.34;79.09
47434;SHT31;33184;48.774;8.918;2023-03-01T06:09:36;-1.19;79.84
47434;SHT31;33184;48.774;8.918;2023-03-01T06:14:57;-1.15;79.52
47434;SHT31;33184;48.774;8.918;2023-03-01T06:20:20;-1.16;78.88
47434;SHT31;33184;48.774;8.918;2023-03-01T06:25:41;-1.23;78.80
47434;SHT31;33184;48.774;8.918;2023-03-01T06:31:02;-1.06;79.35
47434;SHT31;33184;48.774;8.918;2023-03-01T06:36:23;-1.09;78.77
47434;SHT31;33184;48.774;8.918;2023-03-01T06:41:44;-1.03;78.66
47434;SHT31;33184;48.774;8.918;2023-03-01T06:47:05;-1.12;77.96
47434;SHT31;33184;48.774;8.918;2023-03-01T06:52:25;-0.99;78.84
47434;SHT31;33184;48.774;8.918;2023-03-01T06:57:46;-1.21;77.57
47434;SHT31;33184;48.774;8.918;2023-03-01T07:03:08;-1.19;77.70
47434;SHT31;33184;48.774;8.918;2023-03-01T07:08:28;-1.13;77.57
47434;SHT31;33184;48.774;8.918;2023-03-01T07:13:49;-1.13;77.20
47434;SHT31;33184;48.774;8.918;2023-03-01T07:19:09;-1.19;77.30
47434;SHT31;33184;48.774;8.918;2023-03-01T07:24:30;-1.21;76.94
47434;SHT31;33184;48.774;8.918;2023-03-01T07:29:50;-1.31;77.04
47434;SHT31;33184;48.774;8.918;2023-03-01T07:35:11;-1.37;77.71
47434;SHT31;33184;48.774;8.918;2023-03-01T07:40:32;-1.33;77.65
47434;SHT31;33184;48.774;8.918;2023-03-01T07:45:52;-1.40;77.05
47434;SHT31;33184;48.774;8.918;2023-03-01T07:51:13;-1.34;77.87
47434;SHT31;33184;48.774;8.918;2023-03-01T07:56:34;-1.33;77.53
47434;SHT31;33184;48.774;8.918;2023-03-01T08:01:55;-1.20;78.12
47434;SHT31;33184;48.774;8.918;2023-03-01T08:07:16;-1.10;77.57
47434;SHT31;33184;48.774;8.918;2023-03-01T08:12:37;-0.90;77.75
47434;SHT31;33184;48.774;8.918;2023-03-01T08:17:57;-0.80;76.98
47434;SHT31;33184;48.774;8.918;2023-03-01T08:23:18;-0.82;76.58
47434;SHT31;33184;48.774;8.918;2023-03-01T08:28:39;-0.76;76.67
47434;SHT31;33184;48.774;8.918;2023-03-01T08:34:01;-0.59;76.53
47434;SHT31;33184;48.774;8.918;2023-03-01T08:39:21;-0.51;76.29
47434;SHT31;33184;48.774;8.918;2023-03-01T08:44:42;-0.30;75.79
47434;SHT31;33184;48.774;8.918;2023-03-01T08:50:03;-0.15;75.69
47434;SHT31;33184;48.774;8.918;2023-03-01T08:55:24;-0.03;74.54
47434;SHT31;33184;48.774;8.918;2023-03-01T09:00:45;0.13;74.61
47434;SHT31;33184;48.774;8.918;2023-03-01T09:06:06;0.24;74.24
47434;SHT31;33184;48.774;8.918;2023-03-01T09:11:28;0.30;73.48
47434;SHT31;33184;48.774;8.918;2023-03-01T09:16:49;0.61;73.56
47434;SHT31;33184;48.774;8.918;2023-03-01T09:22:10;0.71;72.66
47434;SHT31;33184;48.774;8.918;2023-03-01T09:27:30;0.99;71.77
47434;SHT31;33184;48.774;8.918;2023-03-01T09:32:51;1.22;71.27
47434;SHT31;33184;48.774;8.918;2023-03-01T09:38:13;1.37;70.31
47434;SHT31;33184;48.774;8.918;2023-03-01T09:49:23;1.75;68.06
47434;SHT31;33184;48.774;8.918;2023-03-01T09:54:44;1.88;67.75
47434;SHT31;33184;48.774;8.918;2023-03-01T10:11:38;2.35;66.75
47434;SHT31;33184;48.774;8.918;2023-03-01T10:17:03;2.31;66.47
47434;SHT31;33184;48.774;8.918;2023-03-01T10:22:29;2.46;65.31
47434;SHT31;33184;48.774;8.918;2023-03-01T10:27:53;2.62;64.81
47434;SHT31;33184;48.774;8.918;2023-03-01T10:33:23;2.72;64.12
47434;SHT31;33184;48.774;8.918;2023-03-01T10:38:53;2.76;64.26
47434;SHT31;33184;48.774;8.918;2023-03-01T10:49:58;3.14;61.54
47434;SHT31;33184;48.774;8.918;2023-03-01T10:55:39;3.45;63.37
47434;SHT31;33184;48.774;8.918;2023-03-01T11:01:26;3.83;60.67
47434;SHT31;33184;48.774;8.918;2023-03-01T11:06:58;3.99;60.00
47434;SHT31;33184;48.774;8.918;2023-03-01T11:12:20;3.89;60.52
47434;SHT31;33184;48.774;8.918;2023-03-01T11:17:43;4.35;60.01
47434;SHT31;33184;48.774;8.918;2023-03-01T11:23:10;4.18;59.55
47434;SHT31;33184;48.774;8.918;2023-03-01T11:28:32;4.68;59.59
47434;SHT31;33184;48.774;8.918;2023-03-01T11:34:01;4.84;56.86
47434;SHT31;33184;48.774;8.918;2023-03-01T11:39:40;5.00;58.83
47434;SHT31;33184;48.774;8.918;2023-03-01T11:45:08;5.56;56.33
47434;SHT31;33184;48.774;8.918;2023-03-01T11:50:49;5.64;54.74
47434;SHT31;33184;48.774;8.918;2023-03-01T12:08:14;6.59;54.10
47434;SHT31;33184;48.774;8.918;2023-03-01T12:14:39;7.18;52.66
47434;SHT31;33184;48.774;8.918;2023-03-01T12:48:27;7.59;48.18
47434;SHT31;33184;48.774;8.918;2023-03-01T12:53:54;7.65;48.39
47434;SHT31;33184;48.774;8.918;2023-03-01T12:59:34;7.96;47.65
47434;SHT31;33184;48.774;8.918;2023-03-01T13:10:49;8.60;46.66
47434;SHT31;33184;48.774;8.918;2023-03-01T13:16:40;8.42;46.93
47434;SHT31;33184;48.774;8.918;2023-03-01T13:22:27;8.60;46.18
47434;SHT31;33184;48.774;8.918;2023-03-01T13:27:49;9.23;45.69
47434;SHT31;33184;48.774;8.918;2023-03-01T13:39:00;9.39;44.95
47434;SHT31;33184;48.774;8.918;2023-03-01T13:49:50;8.93;45.97
47434;SHT31;33184;48.774;8.918;2023-03-01T14:00:37;8.96;46.90
47434;SHT31;33184;48.774;8.918;2023-03-01T14:11:58;9.39;45.28
47434;SHT31;33184;48.774;8.918;2023-03-01T14:17:46;8.75;46.08
47434;SHT31;33184;48.774;8.918;2023-03-01T14:23:12;8.88;46.26
47434;SHT31;33184;48.774;8.918;2023-03-01T14:28:33;8.88;48.57
47434;SHT31;33184;48.774;8.918;2023-03-01T14:33:57;8.84;47.12
47434;SHT31;33184;48.774;8.918;2023-03-01T14:39:20;8.34;47.97
47434;SHT31;33184;48.774;8.918;2023-03-01T14:44:46;8.47;47.83
47434;SHT31;33184;48.774;8.918;2023-03-01T14:50:15;8.09;47.88
47434;SHT31;33184;48.774;8.918;2023-03-01T14:55:41;8.12;49.49
47434;SHT31;33184;48.774;8.918;2023-03-01T15:01:04;7.74;49.96
47434;SHT31;33184;48.774;8.918;2023-03-01T15:06:25;7.69;49.80
47434;SHT31;33184;48.774;8.918;2023-03-01T15:11:46;7.72;49.27
47434;SHT31;33184;48.774;8.918;2023-03-01T15:17:34;7.81;48.99
47434;SHT31;33184;48.774;8.918;2023-03-01T15:22:57;7.63;49.34
47434;SHT31;33184;48.774;8.918;2023-03-01T15:28:19;7.35;51.02
47434;SHT31;33184;48.774;8.918;2023-03-01T15:33:41;7.10;51.03
47434;SHT31;33184;48.774;8.918;2023-03-01T15:50:36;7.56;50.91
47434;SHT31;33184;48.774;8.918;2023-03-01T15:56:00;7.34;50.67
47434;SHT31;33184;48.774;8.918;2023-03-01T16:01:20;6.89;51.73
47434;SHT31;33184;48.774;8.918;2023-03-01T16:06:41;6.66;52.50
47434;SHT31;33184;48.774;8.918;2023-03-01T16:12:02;6.48;52.91
47434;SHT31;33184;48.774;8.918;2023-03-01T16:17:23;6.39;53.05
47434;SHT31;33184;48.774;8.918;2023-03-01T16:22:45;6.24;53.44
47434;SHT31;33184;48.774;8.918;2023-03-01T16:28:07;6.25;53.44
47434;SHT31;33184;48.774;8.918;2023-03-01T16:33:31;6.05;53.69
47434;SHT31;33184;48.774;8.918;2023-03-01T16:38:52;5.75;54.69
47434;SHT31;33184;48.774;8.918;2023-03-01T16:44:12;5.56;55.12
47434;SHT31;33184;48.774;8.918;2023-03-01T16:49:33;5.47;55.55
47434;SHT31;33184;48.774;8.918;2023-03-01T16:54:53;5.27;55.89
47434;SHT31;33184;48.774;8.918;2023-03-01T17:00:14;5.10;56.15
47434;SHT31;33184;48.774;8.918;2023-03-01T17:05:35;4.93;56.29
47434;SHT31;33184;48.774;8.918;2023-03-01T17:11:11;4.71;56.58
47434;SHT31;33184;48.774;8.918;2023-03-01T17:16:31;4.51;57.21
47434;SHT31;33184;48.774;8.918;2023-03-01T17:21:52;4.41;57.78
47434;SHT31;33184;48.774;8.918;2023-03-01T17:27:13;4.26;57.86
47434;SHT31;33184;48.774;8.918;2023-03-01T17:32:35;4.06;58.88
47434;SHT31;33184;48.774;8.918;2023-03-01T17:37:55;3.99;58.82
47434;SHT31;33184;48.774;8.918;2023-03-01T17:43:16;3.85;59.58
47434;SHT31;33184;48.774;8.918;2023-03-01T17:48:37;3.78;59.42
47434;SHT31;33184;48.774;8.918;2023-03-01T17:53:58;3.72;59.91
47434;SHT31;33184;48.774;8.918;2023-03-01T17:59:19;3.76;59.83
47434;SHT31;33184;48.774;8.918;2023-03-01T18:04:39;4.02;59.82
47434;SHT31;33184;48.774;8.918;2023-03-01T18:10:00;4.13;59.53
47434;SHT31;33184;48.774;8.918;2023-03-01T18:15:20;4.16;59.44
47434;SHT31;33184;48.774;8.918;2023-03-01T18:20:41;4.00;59.49
47434;SHT31;33184;48.774;8.918;2023-03-01T18:26:04;4.06;59.80
47434;SHT31;33184;48.774;8.918;2023-03-01T18:31:26;3.96;59.63
47434;SHT31;33184;48.774;8.918;2023-03-01T18:36:47;3.83;60.16
47434;SHT31;33184;48.774;8.918;2023-03-01T18:42:07;3.78;60.31
47434;SHT31;33184;48.774;8.918;2023-03-01T18:47:28;3.63;60.62
47434;SHT31;33184;48.774;8.918;2023-03-01T18:52:49;3.62;60.74
47434;SHT31;33184;48.774;8.918;2023-03-01T18:58:09;3.58;60.82
47434;SHT31;33184;48.774;8.918;2023-03-01T19:03:30;3.51;61.26
47434;SHT31;33184;48.774;8.918;2023-03-01T19:08:52;3.47;61.36
47434;SHT31;33184;48.774;8.918;2023-03-01T19:14:12;3.45;61.54
47434;SHT31;33184;48.774;8.918;2023-03-01T19:19:33;3.47;61.61
47434;SHT31;33184;48.774;8.918;2023-03-01T19:24:55;3.39;61.77
47434;SHT31;33184;48.774;8.918;2023-03-01T19:30:17;3.28;61.96
47434;SHT31;33184;48.774;8.918;2023-03-01T19:35:38;3.09;62.29
47434;SHT31;33184;48.774;8.918;2023-03-01T19:41:03;2.97;62.85
47434;SHT31;33184;48.774;8.918;2023-03-01T19:46:24;2.83;63.47
47434;SHT31;33184;48.774;8.918;2023-03-01T19:51:44;2.65;64.02
47434;SHT31;33184;48.774;8.918;2023-03-01T19:57:05;2.43;64.54
47434;SHT31;33184;48.774;8.918;2023-03-01T20:02:26;2.16;65.20
47434;SHT31;33184;48.774;8.918;2023-03-01T20:07:46;2.05;65.88
47434;SHT31;33184;48.774;8.918;2023-03-01T20:13:07;2.03;66.22
47434;SHT31;33184;48.774;8.918;2023-03-01T20:18:28;2.03;66.52
47434;SHT31;33184;48.774;8.918;2023-03-01T20:23:49;1.92;67.06
47434;SHT31;33184;48.774;8.918;2023-03-01T20:29:10;1.94;69.31
47434;SHT31;33184;48.774;8.918;2023-03-01T20:34:33;1.90;70.33
47434;SHT31;33184;48.774;8.918;2023-03-01T20:39:55;1.87;70.05
47434;SHT31;33184;48.774;8.918;2023-03-01T20:45:16;1.71;68.37
47434;SHT31;33184;48.774;8.918;2023-03-01T20:50:40;1.58;68.58
47434;SHT31;33184;48.774;8.918;2023-03-01T20:56:06;1.57;68.57
47434;SHT31;33184;48.774;8.918;2023-03-01T21:01:26;1.63;68.37
47434;SHT31;33184;48.774;8.918;2023-03-01T21:06:47;1.54;68.70
47434;SHT31;33184;48.774;8.918;2023-03-01T21:12:08;1.40;70.48
47434;SHT31;33184;48.774;8.918;2023-03-01T21:17:29;1.67;70.62
47434;SHT31;33184;48.774;8.918;2023-03-01T21:22:50;1.91;70.89
47434;SHT31;33184;48.774;8.918;2023-03-01T21:28:10;1.99;70.18
47434;SHT31;33184;48.774;8.918;2023-03-01T21:33:31;1.71;70.02
47434;SHT31;33184;48.774;8.918;2023-03-01T21:38:53;1.46;71.29
47434;SHT31;33184;48.774;8.918;2023-03-01T21:44:14;1.26;70.70
47434;SHT31;33184;48.774;8.918;2023-03-01T21:49:36;1.16;70.46
47434;SHT31;33184;48.774;8.918;2023-03-01T21:54:57;1.10;70.69
47434;SHT31;33184;48.774;8.918;2023-03-01T22:00:21;1.10;70.37
47434;SHT31;33184;48.774;8.918;2023-03-01T22:05:55;1.12;70.56
47434;SHT31;33184;48.774;8.918;2023-03-01T22:11:18;1.16;70.54
47434;SHT31;33184;48.774;8.918;2023-03-01T22:16:41;1.19;71.19
47434;SHT31;33184;48.774;8.918;2023-03-01T22:22:03;1.17;70.68
47434;SHT31;33184;48.774;8.918;2023-03-01T22:27:24;0.96;70.97
47434;SHT31;33184;48.774;8.918;2023-03-01T22:32:44;0.76;71.10
47434;SHT31;33184;48.774;8.918;2023-03-01T22:38:05;0.75;71.58
47434;SHT31;33184;48.774;8.918;2023-03-01T22:43:27;0.91;72.32
47434;SHT31;33184;48.774;8.918;2023-03-01T22:48:48;0.92;71.75
47434;SHT31;33184;48.774;8.918;2023-03-01T22:54:09;0.88;71.73
47434;SHT31;33184;48.774;8.918;2023-03-01T22:59:30;0.84;71.86
47434;SHT31;33184;48.774;8.918;2023-03-01T23:04:50;0.79;72.10
47434;SHT31;33184;48.774;8.918;2023-03-01T23:10:14;0.69;72.17
47434;SHT31;33184;48.774;8.918;2023-03-01T23:15:35;0.58;72.64
47434;SHT31;33184;48.774;8.918;2023-03-01T23:20:55;0.54;73.03
47434;SHT31;33184;48.774;8.918;2023-03-01T23:26:17;0.44;73.30
47434;SHT31;33184;48.774;8.918;2023-03-01T23:31:38;0.42;73.71
47434;SHT31;33184;48.774;8.918;2023-03-01T23:36:59;0.37;73.58
47434;SHT31;33184;48.774;8.918;2023-03-01T23:42:20;0.30;73.92
47434;SHT31;33184;48.774;8.918;2023-03-01T23:47:40;0.29;74.19
47434;SHT31;33184;48.774;8.918;2023-03-01T23:53:03;0.29;74.28
47434;SHT31;33184;48.774;8.918;2023-03-01T23:58:23;0.24;74.37
